createdAt,value
2023-04-15T00:02:26.143Z,2.61
2023-04-15T00:04:54.357Z,2.62
2023-04-15T00:07:22.353Z,2.62
2023-04-15T00:09:55.144Z,2.71
2023-04-15T00:12:23.379Z,2.57
2023-04-15T00:14:51.227Z,2.41
2023-04-15T00:17:19.177Z,2.68
2023-04-15T00:19:47.533Z,2.68
2023-04-15T00:22:16.120Z,2.67
2023-04-15T00:24:44.202Z,2.68
2023-04-15T00:27:13.719Z,2.66
2023-04-15T00:29:41.939Z,2.66
2023-04-15T00:32:09.829Z,2.65
2023-04-15T00:34:38.022Z,2.35
2023-04-15T00:37:05.873Z,2.33
2023-04-15T00:39:34.134Z,2.65
2023-04-15T00:42:02.446Z,2.65
2023-04-15T00:44:31.744Z,2.52
2023-04-15T00:47:00.296Z,2.63
2023-04-15T00:49:29.222Z,2.64
2023-04-15T00:51:57.160Z,2.58
2023-04-15T00:54:25.015Z,2.63
2023-04-15T00:56:53.130Z,2.63
2023-04-15T00:59:22.521Z,2.53
2023-04-15T01:01:52.296Z,2.64
2023-04-15T01:04:20.564Z,2.64
2023-04-15T01:06:48.450Z,2.07
2023-04-15T01:09:16.373Z,2.65
2023-04-15T01:11:44.928Z,2.20
2023-04-15T01:14:13.046Z,2.68
2023-04-15T01:16:41.197Z,2.71
2023-04-15T01:19:12.784Z,2.71
2023-04-15T01:21:41.030Z,2.74
2023-04-15T01:24:12.097Z,2.31
2023-04-15T01:26:44.527Z,2.69
2023-04-15T01:29:13.208Z,2.82
2023-04-15T01:31:41.101Z,2.83
2023-04-15T01:34:09.094Z,2.87
2023-04-15T01:36:37.449Z,2.90
2023-04-15T01:39:05.731Z,2.58
2023-04-15T01:41:33.918Z,2.93
2023-04-15T01:44:03.273Z,2.95
2023-04-15T01:46:31.414Z,2.76
2023-04-15T01:48:59.718Z,2.99
2023-04-15T01:51:28.417Z,2.60
2023-04-15T01:53:56.959Z,3.05
2023-04-15T01:56:25.578Z,3.07
2023-04-15T01:58:53.651Z,2.58
2023-04-15T02:01:23.434Z,2.79
2023-04-15T02:03:51.528Z,3.15
2023-04-15T02:06:19.658Z,3.18
2023-04-15T02:08:47.575Z,2.76
2023-04-15T02:11:15.650Z,3.23
2023-04-15T02:13:43.678Z,3.25
2023-04-15T02:16:17.973Z,3.29
2023-04-15T02:18:48.049Z,3.30
2023-04-15T02:21:15.988Z,3.19
2023-04-15T02:23:44.177Z,3.21
2023-04-15T02:26:12.097Z,3.38
2023-04-15T02:28:39.930Z,3.41
2023-04-15T02:31:08.382Z,3.41
2023-04-15T02:33:37.080Z,3.05
2023-04-15T02:36:07.606Z,3.34
2023-04-15T02:38:35.671Z,2.94
2023-04-15T02:41:03.661Z,3.45
2023-04-15T02:43:31.713Z,3.34
2023-04-15T02:45:59.836Z,3.49
2023-04-15T02:48:27.841Z,3.50
2023-04-15T02:50:55.710Z,3.52
2023-04-15T02:53:26.172Z,3.54
2023-04-15T02:55:54.115Z,3.43
2023-04-15T02:58:21.958Z,3.49
2023-04-15T03:00:52.134Z,3.50
2023-04-15T03:03:20.412Z,3.61
2023-04-15T03:05:48.324Z,3.54
2023-04-15T03:08:16.782Z,3.64
2023-04-15T03:10:46.076Z,3.24
2023-04-15T03:13:14.033Z,3.66
2023-04-15T03:15:42.237Z,3.68
2023-04-15T03:18:10.407Z,3.69
2023-04-15T03:20:38.281Z,3.69
2023-04-15T03:23:06.266Z,3.71
2023-04-15T03:25:34.168Z,3.72
2023-04-15T03:28:03.404Z,3.72
2023-04-15T03:30:31.671Z,3.74
2023-04-15T03:32:59.805Z,3.71
2023-04-15T03:35:27.711Z,3.65
2023-04-15T03:37:55.848Z,3.73
2023-04-15T03:40:23.925Z,3.73
2023-04-15T03:42:51.779Z,3.73
2023-04-15T03:45:21.067Z,3.74
2023-04-15T03:47:49.910Z,3.76
2023-04-15T03:50:17.902Z,3.67
2023-04-15T03:52:45.927Z,3.64
2023-04-15T03:55:14.712Z,3.42
2023-04-15T03:57:42.590Z,3.80
2023-04-15T04:00:11.209Z,3.82
2023-04-15T04:02:40.982Z,3.82
2023-04-15T04:05:09.746Z,3.82
2023-04-15T04:07:37.628Z,3.79
2023-04-15T04:10:06.114Z,3.86
2023-04-15T04:12:33.969Z,3.88
2023-04-15T04:15:01.871Z,3.90
2023-04-15T04:17:29.923Z,3.61
2023-04-15T04:19:59.140Z,3.94
2023-04-15T04:22:27.059Z,3.97
2023-04-15T04:24:55.067Z,4.00
2023-04-15T04:27:22.928Z,4.05
2023-04-15T04:29:51.034Z,3.77
2023-04-15T04:32:19.090Z,3.81
2023-04-15T04:34:47.246Z,4.15
2023-04-15T04:37:16.845Z,4.18
2023-04-15T04:39:44.866Z,4.20
2023-04-15T04:42:12.701Z,4.20
2023-04-15T04:44:40.848Z,4.19
2023-04-15T04:47:08.846Z,4.18
2023-04-15T04:49:36.927Z,4.01
2023-04-15T04:52:04.874Z,4.14
2023-04-15T04:54:34.638Z,4.14
2023-04-15T04:57:02.525Z,4.10
2023-04-15T04:59:30.436Z,4.10
2023-04-15T05:01:58.606Z,4.09
2023-04-15T05:04:26.526Z,3.72
2023-04-15T05:06:54.608Z,4.08
2023-04-15T05:09:22.580Z,4.09
2023-04-15T05:11:51.938Z,4.10
2023-04-15T05:14:20.789Z,3.86
2023-04-15T05:16:49.753Z,3.99
2023-04-15T05:19:17.567Z,4.00
2023-04-15T05:21:45.523Z,3.11
2023-04-15T05:24:13.668Z,4.10
2023-04-15T05:26:42.922Z,4.21
2023-04-15T05:29:12.246Z,4.13
2023-04-15T05:31:40.562Z,4.24
2023-04-15T05:34:08.512Z,4.28
2023-04-15T05:36:36.495Z,4.30
2023-04-15T05:39:04.809Z,4.32
2023-04-15T05:41:32.853Z,4.35
2023-04-15T05:44:00.771Z,4.36
2023-04-15T05:46:30.133Z,3.99
2023-04-15T05:48:58.057Z,4.43
2023-04-15T05:51:26.004Z,4.12
2023-04-15T05:53:54.010Z,4.34
2023-04-15T05:56:22.396Z,4.52
2023-04-15T05:58:52.492Z,4.56
2023-04-15T06:01:22.304Z,4.61
2023-04-15T06:03:51.781Z,4.65
2023-04-15T06:06:20.502Z,4.70
2023-04-15T06:08:48.602Z,4.62
2023-04-15T06:11:16.595Z,4.52
2023-04-15T06:13:44.454Z,4.77
2023-04-15T06:16:12.688Z,4.91
2023-04-15T06:18:40.793Z,4.94
2023-04-15T06:21:10.158Z,4.99
2023-04-15T06:23:38.330Z,4.99
2023-04-15T06:26:07.867Z,5.11
2023-04-15T06:28:36.050Z,5.16
2023-04-15T06:31:04.297Z,5.03
2023-04-15T06:33:33.277Z,5.25
2023-04-15T06:36:01.140Z,5.31
2023-04-15T06:38:30.555Z,5.10
2023-04-15T06:40:58.803Z,5.44
2023-04-15T06:43:26.910Z,5.51
2023-04-15T06:45:54.978Z,5.00
2023-04-15T06:48:23.150Z,5.57
2023-04-15T06:50:51.249Z,5.78
2023-04-15T06:53:20.006Z,5.56
2023-04-15T06:55:49.451Z,6.04
2023-04-15T06:58:17.313Z,6.22
2023-04-15T07:00:46.462Z,6.17
2023-04-15T07:03:15.271Z,6.97
2023-04-15T07:05:43.546Z,7.53
2023-04-15T07:08:11.689Z,8.13
2023-04-15T07:10:39.825Z,8.60
2023-04-15T07:13:09.099Z,8.10
2023-04-15T07:15:37.107Z,9.23
2023-04-15T07:18:05.204Z,9.91
2023-04-15T07:20:33.077Z,10.51
2023-04-15T07:23:01.048Z,10.84
2023-04-15T07:25:29.294Z,11.14
2023-04-15T07:27:57.605Z,11.11
2023-04-15T07:30:27.070Z,11.52
2023-04-15T07:32:55.546Z,11.46
2023-04-15T07:35:23.605Z,11.87
2023-04-15T07:37:52.248Z,12.17
2023-04-15T07:40:20.231Z,12.43
2023-04-15T07:42:49.571Z,12.36
2023-04-15T07:45:17.584Z,12.50
2023-04-15T07:47:47.221Z,12.84
2023-04-15T07:50:17.086Z,12.73
2023-04-15T07:52:45.701Z,13.64
2023-04-15T07:55:13.696Z,13.95
2023-04-15T07:57:42.050Z,14.10
2023-04-15T08:00:11.512Z,14.20
2023-04-15T08:02:40.536Z,13.97
2023-04-15T08:05:11.182Z,14.24
2023-04-15T08:07:39.572Z,14.27
2023-04-15T08:10:08.591Z,14.27
2023-04-15T08:12:37.106Z,14.51
2023-04-15T08:15:07.603Z,14.56
2023-04-15T08:17:35.673Z,14.69
2023-04-15T08:20:06.235Z,14.99
2023-04-15T08:22:35.654Z,15.16
2023-04-15T08:25:05.581Z,15.33
2023-04-15T08:27:34.072Z,15.34
2023-04-15T08:30:04.644Z,15.48
2023-04-15T08:32:33.178Z,15.52
2023-04-15T08:35:01.916Z,15.55
2023-04-15T08:37:29.940Z,15.71
2023-04-15T08:39:59.199Z,15.83
2023-04-15T08:42:33.643Z,15.54
2023-04-15T08:45:03.051Z,16.08
2023-04-15T08:47:32.484Z,16.21
2023-04-15T08:50:01.965Z,16.28
2023-04-15T08:52:31.740Z,16.29
2023-04-15T08:55:03.367Z,16.15
2023-04-15T08:57:32.570Z,15.91
2023-04-15T09:00:03.909Z,15.97
2023-04-15T09:02:33.719Z,16.06
2023-04-15T09:05:02.403Z,16.18
2023-04-15T09:07:30.294Z,16.24
2023-04-15T09:09:58.852Z,16.22
2023-04-15T09:12:28.281Z,16.30
2023-04-15T09:14:56.117Z,16.36
2023-04-15T09:17:26.787Z,16.57
2023-04-15T09:20:09.909Z,16.77
2023-04-15T09:22:38.743Z,16.65
2023-04-15T09:25:27.606Z,17.08
2023-04-15T09:27:58.612Z,17.03
2023-04-15T09:30:26.596Z,16.92
2023-04-15T09:32:56.593Z,17.09
2023-04-15T09:35:27.685Z,17.15
2023-04-15T09:38:04.069Z,17.23
2023-04-15T09:40:37.416Z,17.34
2023-04-15T09:43:07.870Z,17.54
2023-04-15T09:45:37.284Z,17.31
2023-04-15T09:48:18.230Z,17.08
2023-04-15T09:50:46.348Z,17.05
2023-04-15T09:53:18.275Z,17.02
2023-04-15T09:55:47.912Z,17.03
2023-04-15T09:58:27.536Z,16.80
2023-04-15T10:00:57.768Z,16.88
2023-04-15T10:03:27.702Z,16.87
2023-04-15T10:05:57.657Z,17.09
2023-04-15T10:08:26.768Z,16.87
2023-04-15T10:10:55.342Z,17.26
2023-04-15T10:13:28.555Z,17.32
2023-04-15T10:15:59.617Z,17.53
2023-04-15T10:18:29.391Z,16.90
2023-04-15T10:20:57.275Z,17.15
2023-04-15T10:23:25.861Z,17.71
2023-04-15T10:25:55.531Z,17.80
2023-04-15T10:28:23.681Z,17.69
2023-04-15T10:30:53.921Z,17.82
2023-04-15T10:33:24.148Z,17.81
2023-04-15T10:35:53.882Z,17.65
2023-04-15T10:38:38.684Z,17.59
2023-04-15T10:41:21.540Z,17.64
2023-04-15T10:43:51.762Z,17.70
2023-04-15T10:46:26.680Z,17.70
2023-04-15T10:48:55.340Z,17.75
2023-04-15T10:51:31.658Z,17.59
2023-04-15T10:54:01.029Z,17.52
2023-04-15T10:56:30.899Z,17.64
2023-04-15T10:59:01.584Z,17.82
2023-04-15T11:01:56.710Z,17.80
2023-04-15T11:04:53.161Z,17.91
2023-04-15T11:07:38.140Z,17.99
2023-04-15T11:10:28.170Z,18.13
2023-04-15T11:12:58.837Z,18.12
2023-04-15T11:15:30.699Z,18.10
2023-04-15T11:18:01.461Z,18.22
2023-04-15T11:20:30.128Z,18.25
2023-04-15T11:23:13.711Z,18.33
2023-04-15T11:25:44.438Z,18.32
2023-04-15T11:28:13.260Z,18.28
2023-04-15T11:30:43.265Z,18.34
2023-04-15T11:33:14.145Z,18.38
2023-04-15T11:35:42.805Z,18.26
2023-04-15T11:38:13.040Z,18.34
2023-04-15T11:40:43.849Z,18.51
2023-04-15T11:43:16.085Z,18.52
2023-04-15T11:45:52.898Z,18.45
2023-04-15T11:48:24.777Z,18.30
2023-04-15T11:50:56.981Z,18.20
2023-04-15T11:53:38.365Z,18.48
2023-04-15T11:56:08.937Z,18.81
2023-04-15T11:58:39.374Z,18.58
2023-04-15T12:01:08.481Z,18.85
2023-04-15T12:03:42.797Z,18.89
2023-04-15T12:06:19.324Z,18.98
2023-04-15T12:09:08.688Z,19.26
2023-04-15T12:11:42.746Z,19.18
2023-04-15T12:14:13.802Z,19.18
2023-04-15T12:16:48.778Z,19.41
2023-04-15T12:19:25.430Z,19.12
2023-04-15T12:21:55.428Z,18.93
2023-04-15T12:24:24.081Z,18.92
2023-04-15T12:26:53.774Z,19.03
2023-04-15T12:29:26.166Z,19.18
2023-04-15T12:31:55.863Z,19.30
2023-04-15T12:34:32.668Z,19.65
2023-04-15T12:37:02.507Z,19.74
2023-04-15T12:39:32.616Z,19.72
2023-04-15T12:42:01.750Z,19.99
2023-04-15T12:44:30.823Z,20.04
2023-04-15T12:46:59.953Z,20.06
2023-04-15T12:49:28.722Z,20.05
2023-04-15T12:52:00.899Z,20.12
2023-04-15T12:54:29.126Z,19.94
2023-04-15T12:56:57.305Z,19.86
2023-04-15T12:59:25.715Z,19.88
2023-04-15T13:01:54.629Z,20.54
2023-04-15T13:04:23.608Z,20.37
2023-04-15T13:06:51.836Z,20.09
2023-04-15T13:09:21.076Z,20.52
2023-04-15T13:11:49.068Z,20.61
2023-04-15T13:14:17.013Z,20.30
2023-04-15T13:16:45.271Z,19.96
2023-04-15T13:19:14.613Z,20.10
2023-04-15T13:21:42.558Z,20.43
2023-04-15T13:24:10.677Z,20.59
2023-04-15T13:26:39.895Z,20.71
2023-04-15T13:29:08.010Z,20.74
2023-04-15T13:31:35.946Z,20.73
2023-04-15T13:34:04.140Z,20.94
2023-04-15T13:36:32.878Z,21.14
2023-04-15T13:39:01.068Z,21.24
2023-04-15T13:41:28.934Z,21.05
2023-04-15T13:43:58.604Z,21.52
2023-04-15T13:46:26.942Z,21.85
2023-04-15T13:48:55.170Z,21.84
2023-04-15T13:51:23.566Z,22.24
2023-04-15T13:53:51.669Z,21.68
2023-04-15T13:56:19.611Z,22.28
2023-04-15T13:58:47.787Z,22.62
2023-04-15T14:01:17.147Z,22.87
2023-04-15T14:03:45.231Z,22.89
2023-04-15T14:06:13.482Z,22.63
2023-04-15T14:08:41.521Z,22.93
2023-04-15T14:11:09.456Z,22.95
2023-04-15T14:13:37.560Z,22.99
2023-04-15T14:16:06.339Z,23.02
2023-04-15T14:18:37.341Z,22.80
2023-04-15T14:21:05.789Z,23.19
2023-04-15T14:23:33.965Z,22.79
2023-04-15T14:26:01.892Z,22.94
2023-04-15T14:28:30.483Z,23.11
2023-04-15T14:30:58.529Z,23.10
2023-04-15T14:33:26.507Z,23.02
2023-04-15T14:35:56.328Z,23.29
2023-04-15T14:38:24.301Z,23.58
2023-04-15T14:40:52.154Z,23.42
2023-04-15T14:43:20.093Z,22.98
2023-04-15T14:45:49.405Z,22.76
2023-04-15T14:48:17.677Z,22.51
2023-04-15T14:50:45.653Z,22.80
2023-04-15T14:53:14.993Z,22.47
2023-04-15T14:55:43.634Z,22.43
2023-04-15T14:58:11.595Z,22.47
2023-04-15T15:00:42.142Z,22.55
2023-04-15T15:03:13.823Z,22.45
2023-04-15T15:05:41.907Z,21.88
2023-04-15T15:08:10.632Z,21.88
2023-04-15T15:10:48.970Z,21.38
2023-04-15T15:13:18.087Z,21.45
2023-04-15T15:15:46.650Z,20.93
2023-04-15T15:18:14.634Z,20.46
2023-04-15T15:20:42.488Z,20.02
2023-04-15T15:23:10.415Z,19.86
2023-04-15T15:25:40.228Z,19.61
2023-04-15T15:28:08.288Z,19.74
2023-04-15T15:30:36.287Z,19.80
2023-04-15T15:33:04.407Z,19.13
2023-04-15T15:35:33.179Z,19.84
2023-04-15T15:38:01.709Z,20.17
2023-04-15T15:40:29.636Z,19.26
2023-04-15T15:42:59.280Z,19.70
2023-04-15T15:45:27.241Z,19.38
2023-04-15T15:47:57.415Z,18.99
2023-04-15T15:50:25.306Z,17.81
2023-04-15T15:52:53.382Z,18.09
2023-04-15T15:55:21.628Z,17.84
2023-04-15T15:57:50.170Z,17.62
2023-04-15T16:00:19.638Z,17.50
2023-04-15T16:05:18.575Z,17.32
2023-04-15T16:07:46.509Z,16.82
2023-04-15T16:10:14.433Z,16.47
2023-04-15T16:12:42.558Z,16.15
2023-04-15T16:15:12.182Z,15.89
2023-04-15T16:17:41.842Z,15.63
2023-04-15T16:20:10.488Z,15.65
2023-04-15T16:22:38.652Z,15.53
2023-04-15T16:25:07.279Z,15.69
2023-04-15T16:27:40.778Z,15.75
2023-04-15T16:30:18.189Z,15.64
2023-04-15T16:32:47.470Z,15.54
2023-04-15T16:35:16.862Z,15.44
2023-04-15T16:37:45.069Z,15.30
2023-04-15T16:40:13.688Z,15.07
2023-04-15T16:42:43.604Z,14.77
2023-04-15T16:45:12.095Z,14.47
2023-04-15T16:47:39.988Z,13.97
2023-04-15T16:50:10.623Z,13.76
2023-04-15T16:52:38.879Z,13.51
2023-04-15T16:55:07.493Z,13.07
2023-04-15T16:58:00.709Z,12.50
2023-04-15T17:00:26.497Z,12.14
2023-04-15T17:02:54.400Z,11.69
2023-04-15T17:05:23.709Z,11.21
2023-04-15T17:07:51.733Z,10.95
2023-04-15T17:10:19.689Z,10.65
2023-04-15T17:12:47.628Z,10.37
2023-04-15T17:15:15.717Z,10.14
2023-04-15T17:17:43.555Z,9.97
2023-04-15T17:20:12.339Z,9.78
2023-04-15T17:22:41.735Z,9.07
2023-04-15T17:25:09.885Z,9.33
2023-04-15T17:27:38.692Z,9.16
2023-04-15T17:30:07.778Z,8.99
2023-04-15T17:32:36.199Z,8.83
2023-04-15T17:35:06.488Z,8.52
2023-04-15T17:37:34.697Z,8.45
2023-04-15T17:40:05.845Z,7.28
2023-04-15T17:42:35.417Z,8.14
2023-04-15T17:45:03.317Z,7.93
2023-04-15T17:47:31.185Z,7.76
2023-04-15T17:49:59.403Z,7.49
2023-04-15T17:52:27.359Z,7.58
2023-04-15T17:54:55.899Z,7.53
2023-04-15T17:57:25.611Z,7.48
2023-04-15T17:59:53.481Z,7.41
2023-04-15T18:02:21.438Z,7.32
2023-04-15T18:04:49.904Z,7.24
2023-04-15T18:07:17.886Z,6.98
2023-04-15T18:09:45.786Z,7.09
2023-04-15T18:12:14.196Z,6.94
2023-04-15T18:14:43.417Z,7.00
2023-04-15T18:17:13.546Z,6.92
2023-04-15T18:19:41.793Z,6.98
2023-04-15T18:22:09.631Z,6.75
2023-04-15T18:24:37.456Z,6.39
2023-04-15T18:27:05.615Z,6.79
2023-04-15T18:29:33.463Z,6.75
2023-04-15T18:32:03.298Z,6.74
2023-04-15T18:34:31.453Z,6.70
2023-04-15T18:36:59.905Z,6.62
2023-04-15T18:39:27.886Z,6.54
2023-04-15T18:41:57.404Z,6.49
2023-04-15T18:44:25.422Z,6.46
2023-04-15T18:46:53.298Z,6.27
2023-04-15T18:49:23.176Z,6.43
2023-04-15T18:51:51.408Z,6.37
2023-04-15T18:54:19.234Z,6.34
2023-04-15T18:56:47.318Z,5.66
2023-04-15T18:59:28.471Z,5.71
2023-04-15T19:01:59.111Z,6.10
2023-04-15T19:04:29.753Z,6.15
2023-04-15T19:06:58.883Z,5.82
2023-04-15T19:09:27.298Z,6.10
2023-04-15T19:11:55.408Z,6.05
2023-04-15T19:14:23.591Z,6.02
2023-04-15T19:16:51.631Z,5.98
2023-04-15T19:19:19.827Z,5.91
2023-04-15T19:21:50.306Z,5.86
2023-04-15T19:24:18.914Z,5.83
2023-04-15T19:26:49.688Z,5.76
2023-04-15T19:29:17.668Z,5.69
2023-04-15T19:31:45.665Z,5.40
2023-04-15T19:34:13.552Z,5.66
2023-04-15T19:36:41.721Z,5.64
2023-04-15T19:39:11.112Z,5.61
2023-04-15T19:41:39.378Z,5.57
2023-04-15T19:44:07.792Z,5.56
2023-04-15T19:46:35.869Z,5.53
2023-04-15T19:49:04.140Z,5.50
2023-04-15T19:51:32.309Z,5.49
2023-04-15T19:54:00.543Z,5.47
2023-04-15T19:56:30.775Z,5.44
2023-04-15T19:59:00.159Z,5.40
2023-04-15T20:01:29.487Z,5.37
2023-04-15T20:03:57.799Z,5.33
2023-04-15T20:06:27.517Z,5.28
2023-04-15T20:08:55.586Z,5.23
2023-04-15T20:12:46.059Z,5.14
2023-04-15T20:14:18.808Z,5.02
2023-04-15T20:16:46.731Z,5.16
2023-04-15T20:19:14.747Z,4.82
2023-04-15T20:21:42.807Z,5.08
2023-04-15T20:24:11.008Z,4.59
2023-04-15T20:26:39.363Z,5.05
2023-04-15T20:29:07.665Z,5.03
2023-04-15T20:31:38.857Z,5.02
2023-04-15T20:34:07.449Z,4.99
2023-04-15T20:36:36.053Z,4.71
2023-04-15T20:39:04.256Z,4.94
2023-04-15T20:41:32.340Z,4.09
2023-04-15T20:44:00.375Z,4.92
2023-04-15T20:46:28.257Z,4.50
2023-04-15T20:48:57.613Z,4.57
2023-04-15T20:51:27.269Z,4.90
2023-04-15T20:53:55.717Z,4.71
2023-04-15T20:56:23.698Z,4.83
2023-04-15T20:58:51.547Z,4.75
2023-04-15T21:01:19.459Z,4.45
2023-04-15T21:03:47.747Z,4.73
2023-04-15T21:06:17.023Z,4.68
2023-04-15T21:08:44.985Z,4.65
2023-04-15T21:11:14.845Z,4.22
2023-04-15T21:13:48.901Z,4.62
2023-04-15T21:16:16.838Z,4.60
2023-04-15T21:18:44.729Z,4.58
2023-04-15T21:21:12.621Z,4.56
2023-04-15T21:23:42.564Z,4.56
2023-04-15T21:26:10.370Z,4.54
2023-04-15T21:28:39.732Z,4.44
2023-04-15T21:31:07.648Z,4.50
2023-04-15T21:33:35.595Z,4.48
2023-04-15T21:36:03.613Z,4.47
2023-04-15T21:38:31.646Z,4.00
2023-04-15T21:41:01.138Z,4.40
2023-04-15T21:43:29.297Z,4.37
2023-04-15T21:46:21.092Z,4.34
2023-04-15T21:48:45.543Z,4.21
2023-04-15T21:51:13.616Z,4.31
2023-04-15T21:53:41.533Z,4.12
2023-04-15T21:56:11.141Z,4.27
2023-04-15T21:58:39.093Z,4.24
2023-04-15T22:01:07.038Z,4.20
2023-04-15T22:03:36.060Z,4.17
2023-04-15T22:06:05.050Z,4.12
2023-04-15T22:08:38.644Z,4.05
2023-04-15T22:11:20.944Z,4.05
2023-04-15T22:13:48.784Z,3.90
2023-04-15T22:16:16.844Z,3.98
2023-04-15T22:18:44.894Z,3.97
2023-04-15T22:21:14.195Z,3.97
2023-04-15T22:23:42.144Z,3.82
2023-04-15T22:26:10.190Z,3.76
2023-04-15T22:28:39.403Z,3.97
2023-04-15T22:31:07.362Z,3.94
2023-04-15T22:33:35.469Z,3.90
2023-04-15T22:36:03.364Z,3.88
2023-04-15T22:38:31.469Z,3.50
2023-04-15T22:40:59.439Z,3.83
2023-04-15T22:43:27.525Z,3.78
2023-04-15T22:45:57.106Z,2.88
2023-04-15T22:48:25.376Z,3.78
2023-04-15T22:50:53.470Z,3.74
2023-04-15T22:53:21.350Z,3.71
2023-04-15T22:55:49.795Z,3.42
2023-04-15T22:58:18.423Z,3.67
2023-04-15T23:00:46.453Z,3.50
2023-04-15T23:03:18.282Z,3.62
2023-04-15T23:05:47.003Z,3.59
2023-04-15T23:08:14.890Z,3.43
2023-04-15T23:10:44.787Z,3.53
2023-04-15T23:13:12.812Z,3.49
2023-04-15T23:15:40.700Z,3.43
2023-04-15T23:18:11.374Z,3.26
2023-04-15T23:20:40.837Z,3.26
2023-04-15T23:23:08.671Z,3.29
2023-04-15T23:25:36.595Z,3.27
2023-04-15T23:28:04.534Z,3.24
2023-04-15T23:30:32.342Z,3.20
2023-04-15T23:33:00.778Z,3.14
2023-04-15T23:35:28.842Z,3.06
2023-04-15T23:37:58.038Z,2.90
2023-04-15T23:40:26.225Z,2.94
2023-04-15T23:42:54.125Z,2.87
2023-04-15T23:45:22.015Z,2.79
2023-04-15T23:47:50.079Z,2.72
2023-04-15T23:50:18.047Z,2.66
2023-04-15T23:52:46.015Z,2.50
2023-04-15T23:55:15.404Z,2.59
2023-04-15T23:57:43.320Z,2.43
